Time,TemperatureF,DewpointF,PressureIn,WindDirection,WindDirectionDegrees,WindSpeedMPH,WindSpeedGustMPH,Humidity,HourlyPrecipIn,Conditions,Clouds,dailyrainin,SolarRadiationWatts/m^2,SoftwareType,DateUTC
2013-07-01 00:01:00,63.2,59.3,30.03,WNW,299,1.0,0.0,87,0.00,,CLR,0.00,0.00,VWS V14.01,2013-07-01 05:01:00,
2013-07-01 00:06:00,63.0,58.4,29.90,WNW,299,0.0,1.0,85,0.00,,,0.00,0.0,WUHU216DAVISVP2,2013-07-01 05:06:00,
2013-07-01 00:11:00,62.8,58.2,29.90,WNW,299,1.0,3.0,85,0.00,,,0.00,0.0,WUHU216DAVISVP2,2013-07-01 05:11:00,
2013-07-01 00:16:00,62.7,58.5,29.90,WNW,299,3.0,5.0,86,0.00,,,0.00,0.0,WUHU216DAVISVP2,2013-07-01 05:16:00,
2013-07-01 00:21:00,62.6,58.4,29.90,WNW,299,2.0,5.0,86,0.00,,,0.00,0.0,WUHU216DAVISVP2,2013-07-01 05:21:00,
2013-07-01 00:26:00,62.5,58.9,30.04,NW,317,2.0,2.0,88,0.00,,CLR,0.00,0.00,VWS V14.01,2013-07-01 05:26:00,
2013-07-01 00:31:00,62.6,58.7,30.03,NW,317,4.0,4.0,87,0.00,,CLR,0.00,0.00,VWS V14.01,2013-07-01 05:31:00,
2013-07-01 00:36:00,62.8,58.9,30.03,NW,323,3.0,4.0,87,0.00,,CLR,0.00,0.00,VWS V14.01,2013-07-01 05:36:00,
2013-07-01 00:41:00,62.9,58.0,29.90,NW,317,3.0,6.0,84,0.00,,,0.00,0.0,WUHU216DAVISVP2,2013-07-01 05:41:00,
2013-07-01 00:46:00,62.9,58.0,29.90,NNW,329,4.0,6.0,84,0.00,,,0.00,0.0,WUHU216DAVISVP2,2013-07-01 05:46:00,
2013-07-01 00:51:00,62.9,57.7,29.90,NW,321,5.0,6.0,83,0.00,,,0.00,0.0,WUHU216DAVISVP2,2013-07-01 05:51:00,
2013-07-01 00:56:00,62.9,57.7,29.90,NW,321,4.0,6.0,83,0.00,,,0.00,0.0,WUHU216DAVISVP2,2013-07-01 05:56:00,
2013-07-01 01:01:00,62.9,57.7,29.90,NW,321,2.0,6.0,83,0.00,,,0.00,0.0,WUHU216DAVISVP2,2013-07-01 06:01:00,
2013-07-01 01:06:00,62.8,58.2,30.04,NW,321,4.0,4.0,85,0.00,,CLR,0.00,0.00,VWS V14.01,2013-07-01 06:06:00,
2013-07-01 01:11:00,62.7,57.5,29.90,NW,321,4.0,6.0,83,0.00,,,0.00,0.0,WUHU216DAVISVP2,2013-07-01 06:11:00,
2013-07-01 01:16:00,62.7,58.1,30.04,NW,321,3.0,3.0,85,0.00,,CLR,0.00,0.00,VWS V14.01,2013-07-01 06:16:00,
2013-07-01 01:21:00,62.7,57.1,29.90,NW,321,4.0,6.0,82,0.00,,,0.00,0.0,WUHU216DAVISVP2,2013-07-01 06:21:00,
2013-07-01 01:26:00,62.8,57.2,29.91,NW,321,5.0,6.0,82,0.00,,,0.00,0.0,WUHU216DAVISVP2,2013-07-01 06:26:00,
2013-07-01 01:31:00,62.8,57.9,30.04,NW,321,3.0,4.0,84,0.00,,CLR,0.00,0.00,VWS V14.01,2013-07-01 06:31:00,
2013-07-01 01:36:00,62.8,57.2,29.90,NNW,327,4.0,6.0,82,0.00,,,0.00,0.0,WUHU216DAVISVP2,2013-07-01 06:36:00,
2013-07-01 01:41:00,62.8,57.3,29.90,NNW,327,4.0,6.0,82,0.00,,,0.00,0.0,WUHU216DAVISVP2,2013-07-01 06:41:00,
2013-07-01 01:46:00,62.7,57.5,29.91,NNW,327,4.0,6.0,83,0.00,,,0.00,0.0,WUHU216DAVISVP2,2013-07-01 06:46:00,
2013-07-01 01:51:00,62.5,57.3,29.91,NNW,327,4.0,6.0,83,0.00,,,0.00,0.0,WUHU216DAVISVP2,2013-07-01 06:51:00,
2013-07-01 01:56:00,62.3,57.1,29.91,NNW,327,3.0,5.0,83,0.00,,,0.00,0.0,WUHU216DAVISVP2,2013-07-01 06:56:00,
2013-07-01 02:01:00,62.1,57.2,29.91,NNW,327,2.0,5.0,84,0.00,,,0.00,0.0,WUHU216DAVISVP2,2013-07-01 07:01:00,
2013-07-01 02:06:00,61.8,56.9,29.90,NNW,327,1.0,5.0,84,0.00,,,0.00,0.0,WUHU216DAVISVP2,2013-07-01 07:06:00,
2013-07-01 02:11:00,61.7,56.8,29.91,NNW,327,2.0,5.0,84,0.00,,,0.00,0.0,WUHU216DAVISVP2,2013-07-01 07:11:00,
2013-07-01 02:16:00,61.6,57.0,29.90,NNW,327,2.0,5.0,85,0.00,,,0.00,0.0,WUHU216DAVISVP2,2013-07-01 07:16:00,
2013-07-01 02:21:00,61.6,57.1,29.91,NNW,327,0.0,3.0,85,0.00,,,0.00,0.0,WUHU216DAVISVP2,2013-07-01 07:21:00,
2013-07-01 02:26:00,61.6,57.7,30.04,NNW,327,3.0,3.0,87,0.00,,CLR,0.00,0.00,VWS V14.01,2013-07-01 07:26:00,
2013-07-01 02:31:00,61.4,57.5,30.05,NNW,327,3.0,3.0,87,0.00,,CLR,0.00,0.00,VWS V14.01,2013-07-01 07:31:00,
2013-07-01 02:36:00,61.3,56.8,29.91,NNW,327,2.0,3.0,85,0.00,,,0.00,0.0,WUHU216DAVISVP2,2013-07-01 07:36:00,
2013-07-01 02:41:00,61.1,56.6,29.91,NNW,327,4.0,4.0,85,0.00,,,0.00,0.0,WUHU216DAVISVP2,2013-07-01 07:41:00,
2013-07-01 02:46:00,60.9,56.7,29.91,NNW,327,1.0,4.0,86,0.00,,,0.00,0.0,WUHU216DAVISVP2,2013-07-01 07:46:00,
2013-07-01 02:51:00,60.8,56.6,29.91,NNW,327,2.0,5.0,86,0.00,,,0.00,0.0,WUHU216DAVISVP2,2013-07-01 07:51:00,
2013-07-01 02:56:00,60.6,56.4,29.91,NNW,327,2.0,5.0,86,0.00,,,0.00,0.0,WUHU216DAVISVP2,2013-07-01 07:56:00,
2013-07-01 03:01:00,60.5,56.6,29.91,NNW,327,1.0,4.0,87,0.00,,,0.00,0.0,WUHU216DAVISVP2,2013-07-01 08:01:00,
2013-07-01 03:06:00,60.3,56.4,29.91,NNW,327,3.0,5.0,87,0.00,,,0.00,0.0,WUHU216DAVISVP2,2013-07-01 08:06:00,
2013-07-01 03:11:00,60.2,56.3,29.91,NNW,327,2.0,5.0,87,0.00,,,0.00,0.0,WUHU216DAVISVP2,2013-07-01 08:11:00,
2013-07-01 03:16:00,60.0,56.1,29.91,NNW,327,5.0,5.0,87,0.00,,,0.00,0.0,WUHU216DAVISVP2,2013-07-01 08:16:00,
2013-07-01 03:21:00,59.8,56.9,30.05,NNW,328,3.0,3.0,90,0.00,,CLR,0.00,0.00,VWS V14.01,2013-07-01 08:21:00,
2013-07-01 03:26:00,59.8,56.2,29.92,NNW,328,2.0,5.0,88,0.00,,,0.00,0.0,WUHU216DAVISVP2,2013-07-01 08:26:00,
2013-07-01 03:31:00,59.8,56.9,30.05,NNW,329,4.0,4.0,90,0.00,,CLR,0.00,0.00,VWS V14.01,2013-07-01 08:31:00,
2013-07-01 03:36:00,59.4,56.5,30.05,NNW,329,1.0,0.0,90,0.00,,CLR,0.00,0.00,VWS V14.01,2013-07-01 08:36:00,
2013-07-01 03:41:00,59.0,56.1,30.05,NNW,329,3.0,3.0,90,0.00,,CLR,0.00,0.00,VWS V14.01,2013-07-01 08:41:00,
2013-07-01 03:46:00,59.0,55.7,29.91,NNW,329,0.0,4.0,89,0.00,,,0.00,0.0,WUHU216DAVISVP2,2013-07-01 08:46:00,
2013-07-01 03:51:00,59.0,56.4,30.05,NNW,329,2.0,2.0,91,0.00,,CLR,0.00,0.00,VWS V14.01,2013-07-01 08:51:00,
2013-07-01 03:56:00,58.9,55.6,29.91,NNW,329,2.0,3.0,89,0.00,,,0.00,0.0,WUHU216DAVISVP2,2013-07-01 08:56:00,
2013-07-01 04:01:00,58.7,55.7,29.92,NNW,329,4.0,5.0,90,0.00,,,0.00,0.0,WUHU216DAVISVP2,2013-07-01 09:01:00,
2013-07-01 04:06:00,58.6,56.3,30.06,NNW,329,4.0,4.0,92,0.00,,CLR,0.00,0.00,VWS V14.01,2013-07-01 09:06:00,
2013-07-01 04:11:00,58.5,56.2,30.06,NNW,329,4.0,4.0,92,0.00,,CLR,0.00,0.00,VWS V14.01,2013-07-01 09:11:00,
2013-07-01 04:16:00,58.4,56.1,30.06,NNW,329,4.0,4.0,92,0.00,,CLR,0.00,0.00,VWS V14.01,2013-07-01 09:16:00,
2013-07-01 04:21:00,58.3,56.0,30.06,NNW,329,3.0,3.0,92,0.00,,CLR,0.00,0.00,VWS V14.01,2013-07-01 09:21:00,
2013-07-01 04:26:00,58.2,55.3,29.92,NNW,329,2.0,5.0,90,0.00,,,0.00,0.0,WUHU216DAVISVP2,2013-07-01 09:26:00,
2013-07-01 04:31:00,58.2,55.6,29.91,NNW,329,1.0,4.0,91,0.00,,,0.00,0.0,WUHU216DAVISVP2,2013-07-01 09:31:00,
2013-07-01 04:36:00,58.3,55.6,29.92,NNW,329,0.0,4.0,91,0.00,,,0.00,0.0,WUHU216DAVISVP2,2013-07-01 09:36:00,
2013-07-01 04:41:00,58.2,56.2,30.06,NNW,329,1.0,0.0,93,0.00,,CLR,0.00,0.00,VWS V14.01,2013-07-01 09:41:00,
2013-07-01 04:46:00,58.1,55.5,29.92,NNW,329,0.0,0.0,91,0.00,,,0.00,0.0,WUHU216DAVISVP2,2013-07-01 09:46:00,
2013-07-01 04:51:00,57.9,55.9,30.06,NNW,329,3.0,3.0,93,0.00,,CLR,0.00,0.00,VWS V14.01,2013-07-01 09:51:00,
2013-07-01 04:56:00,57.6,55.3,30.07,NNW,329,1.0,0.0,92,0.00,,CLR,0.00,0.00,VWS V14.01,2013-07-01 09:56:00,
2013-07-01 05:01:00,57.3,54.7,29.92,NNW,329,1.0,2.0,91,0.00,,,0.00,0.0,WUHU216DAVISVP2,2013-07-01 10:01:00,
2013-07-01 05:06:00,57.1,55.1,30.07,NNW,329,1.0,0.0,93,0.00,,CLR,0.00,0.00,VWS V14.01,2013-07-01 10:06:00,
2013-07-01 05:11:00,57.0,55.0,30.08,NNW,329,1.0,0.0,93,0.00,,CLR,0.00,0.00,VWS V14.01,2013-07-01 10:11:00,
2013-07-01 05:16:00,57.1,55.1,30.08,NNW,329,2.0,2.0,93,0.00,,CLR,0.00,0.00,VWS V14.01,2013-07-01 10:16:00,
2013-07-01 05:21:00,57.1,55.4,30.08,NNW,329,2.0,2.0,94,0.00,,CLR,0.00,0.00,VWS V14.01,2013-07-01 10:21:00,
2013-07-01 05:26:00,57.0,55.3,30.08,NNW,329,1.0,0.0,94,0.00,,CLR,0.00,0.00,VWS V14.01,2013-07-01 10:26:00,
2013-07-01 05:31:00,56.9,54.6,29.93,NNW,329,2.0,2.0,92,0.00,,,0.00,0.0,WUHU216DAVISVP2,2013-07-01 10:31:00,
2013-07-01 05:36:00,56.9,54.6,29.94,NNW,329,1.0,4.0,92,0.00,,,0.00,5.0,WUHU216DAVISVP2,2013-07-01 10:36:00,
2013-07-01 05:41:00,56.9,54.6,29.94,NNW,329,1.0,4.0,92,0.00,,,0.00,7.0,WUHU216DAVISVP2,2013-07-01 10:41:00,
2013-07-01 05:46:00,56.9,54.6,29.94,NNW,329,2.0,3.0,92,0.00,,,0.00,9.0,WUHU216DAVISVP2,2013-07-01 10:46:00,
2013-07-01 05:51:00,57.0,55.3,30.08,NNW,329,2.0,2.0,94,0.00,,CLR,0.00,12.00,VWS V14.01,2013-07-01 10:51:00,
2013-07-01 05:56:00,57.0,54.7,29.94,NNW,329,1.0,3.0,92,0.00,,,0.00,16.0,WUHU216DAVISVP2,2013-07-01 10:56:00,
2013-07-01 06:01:00,57.1,55.4,30.08,NNW,329,3.0,3.0,94,0.00,,CLR,0.00,19.00,VWS V14.01,2013-07-01 11:01:00,
2013-07-01 06:06:00,57.0,55.3,30.09,West,277,2.0,2.0,94,0.00,,CLR,0.00,23.00,VWS V14.01,2013-07-01 11:06:00,
2013-07-01 06:11:00,57.1,55.4,30.09,West,278,3.0,3.0,94,0.00,,CLR,0.00,28.00,VWS V14.01,2013-07-01 11:11:00,
2013-07-01 06:16:00,57.2,55.5,30.09,West,279,2.0,2.0,94,0.00,,CLR,0.00,32.00,VWS V14.01,2013-07-01 11:16:00,
2013-07-01 06:21:00,57.4,55.1,29.95,WNW,287,1.0,4.0,92,0.00,,,0.00,35.0,WUHU216DAVISVP2,2013-07-01 11:21:00,
2013-07-01 06:26:00,57.7,55.7,29.95,WNW,288,1.0,4.0,93,0.00,,,0.00,39.0,WUHU216DAVISVP2,2013-07-01 11:26:00,
2013-07-01 06:31:00,57.8,56.4,30.09,WNW,287,1.0,1.0,95,0.00,,CLR,0.00,42.00,VWS V14.01,2013-07-01 11:31:00,
2013-07-01 06:36:00,58.0,56.6,30.09,WNW,288,1.0,0.0,95,0.00,,CLR,0.00,47.00,VWS V14.01,2013-07-01 11:36:00,
2013-07-01 06:41:00,58.2,55.8,29.95,WNW,288,0.0,1.0,92,0.00,,,0.00,62.0,WUHU216DAVISVP2,2013-07-01 11:41:00,
2013-07-01 06:46:00,58.5,56.4,29.95,WNW,288,2.0,2.0,93,0.00,,,0.00,107.0,WUHU216DAVISVP2,2013-07-01 11:46:00,
2013-07-01 06:51:00,59.0,56.9,29.95,WNW,288,0.0,2.0,93,0.00,,,0.00,121.0,WUHU216DAVISVP2,2013-07-01 11:51:00,
2013-07-01 06:56:00,59.1,57.0,29.95,WNW,287,0.0,2.0,93,0.00,,,0.00,130.0,WUHU216DAVISVP2,2013-07-01 11:56:00,
2013-07-01 07:01:00,59.7,58.0,30.09,WNW,288,1.0,0.0,94,0.00,,CLR,0.00,141.00,VWS V14.01,2013-07-01 12:01:00,
2013-07-01 07:06:00,60.2,57.8,29.95,NNW,344,4.0,6.0,92,0.00,,,0.00,153.0,WUHU216DAVISVP2,2013-07-01 12:06:00,
2013-07-01 07:11:00,60.6,58.3,29.95,NNW,344,1.0,6.0,92,0.00,,,0.00,165.0,WUHU216DAVISVP2,2013-07-01 12:11:00,
2013-07-01 07:16:00,61.1,59.1,30.09,NNW,344,4.0,4.0,93,0.00,,CLR,0.00,178.00,VWS V14.01,2013-07-01 12:16:00,
2013-07-01 07:21:00,61.6,58.6,29.95,NNW,344,1.0,5.0,90,0.00,,,0.00,190.0,WUHU216DAVISVP2,2013-07-01 12:21:00,
2013-07-01 07:26:00,62.1,58.8,29.95,NNW,343,2.0,5.0,89,0.00,,,0.00,204.0,WUHU216DAVISVP2,2013-07-01 12:26:00,
2013-07-01 07:31:00,62.7,59.1,29.95,NNW,343,4.0,5.0,88,0.00,,,0.00,213.0,WUHU216DAVISVP2,2013-07-01 12:31:00,
2013-07-01 07:36:00,63.3,59.4,29.95,NNW,344,5.0,5.0,87,0.00,,,0.00,227.0,WUHU216DAVISVP2,2013-07-01 12:36:00,
2013-07-01 07:41:00,63.8,60.2,30.10,NNW,344,3.0,3.0,88,0.00,,CLR,0.00,241.00,VWS V14.01,2013-07-01 12:41:00,
2013-07-01 07:46:00,64.2,60.2,29.96,NNW,346,2.0,5.0,87,0.00,,,0.00,255.0,WUHU216DAVISVP2,2013-07-01 12:46:00,
2013-07-01 07:51:00,64.7,60.4,29.96,NNW,346,3.0,6.0,86,0.00,,,0.00,267.0,WUHU216DAVISVP2,2013-07-01 12:51:00,
2013-07-01 07:56:00,65.1,60.5,29.96,NNW,346,2.0,6.0,85,0.00,,,0.00,283.0,WUHU216DAVISVP2,2013-07-01 12:56:00,
2013-07-01 08:01:00,65.6,60.7,29.96,NNW,327,4.0,5.0,84,0.00,,,0.00,294.0,WUHU216DAVISVP2,2013-07-01 13:01:00,
2013-07-01 08:06:00,66.1,60.8,29.96,NNW,327,1.0,4.0,83,0.00,,,0.00,308.0,WUHU216DAVISVP2,2013-07-01 13:06:00,
2013-07-01 08:11:00,66.7,61.1,29.96,NNE,25,2.0,4.0,82,0.00,,,0.00,323.0,WUHU216DAVISVP2,2013-07-01 13:11:00,
2013-07-01 08:16:00,67.3,61.3,29.96,North,5,2.0,5.0,81,0.00,,,0.00,329.0,WUHU216DAVISVP2,2013-07-01 13:16:00,
2013-07-01 08:21:00,67.9,61.9,30.10,North,5,4.0,4.0,81,0.00,,CLR,0.00,348.00,VWS V14.01,2013-07-01 13:21:00,
2013-07-01 08:26:00,68.2,61.8,30.10,NNE,15,3.0,3.0,80,0.00,,CLR,0.00,367.00,VWS V14.01,2013-07-01 13:26:00,
2013-07-01 08:31:00,68.6,61.6,29.96,NNE,15,2.0,5.0,78,0.00,,,0.00,378.0,WUHU216DAVISVP2,2013-07-01 13:31:00,
2013-07-01 08:35:00,69.0,61.9,29.96,NNE,15,2.0,4.0,78,0.00,,,0.00,397.0,WUHU216DAVISVP2,2013-07-01 13:35:00,
2013-07-01 08:40:00,69.5,62.8,29.96,NNW,334,1.0,4.0,79,0.00,,,0.00,417.0,WUHU216DAVISVP2,2013-07-01 13:40:00,
2013-07-01 08:45:00,70.0,63.5,30.10,NNE,19,2.0,2.0,80,0.00,,CLR,0.00,431.00,VWS V14.01,2013-07-01 13:45:00,
2013-07-01 08:50:00,70.5,63.3,30.10,NNW,347,4.0,4.0,78,0.00,,CLR,0.00,448.00,VWS V14.01,2013-07-01 13:50:00,
2013-07-01 08:55:00,71.0,62.7,29.97,North,350,4.0,6.0,75,0.00,,,0.00,461.0,WUHU216DAVISVP2,2013-07-01 13:55:00,
2013-07-01 09:00:00,71.4,62.8,29.97,North,355,5.0,6.0,74,0.00,,,0.00,476.0,WUHU216DAVISVP2,2013-07-01 14:00:00,
2013-07-01 09:05:00,71.9,62.6,29.97,North,355,4.0,6.0,72,0.00,,,0.00,492.0,WUHU216DAVISVP2,2013-07-01 14:05:00,
2013-07-01 09:10:00,72.4,63.4,29.97,North,360,2.0,6.0,73,0.00,,,0.00,385.0,WUHU216DAVISVP2,2013-07-01 14:10:00,
2013-07-01 09:15:00,72.8,63.4,29.96,North,355,4.0,6.0,72,0.00,,,0.00,524.0,WUHU216DAVISVP2,2013-07-01 14:15:00,
2013-07-01 09:20:00,72.8,64.0,30.10,North,351,3.0,3.0,74,0.00,,CLR,0.00,512.00,VWS V14.01,2013-07-01 14:20:00,
2013-07-01 09:25:00,73.1,63.7,29.96,NNE,22,6.0,6.0,72,0.00,,,0.00,592.0,WUHU216DAVISVP2,2013-07-01 14:25:00,
2013-07-01 09:30:00,73.2,64.4,30.10,North,355,5.0,5.0,74,0.00,,CLR,0.00,262.00,VWS V14.01,2013-07-01 14:30:00,
2013-07-01 09:35:00,73.0,63.2,29.96,North,350,5.0,7.0,71,0.00,,,0.00,316.0,WUHU216DAVISVP2,2013-07-01 14:35:00,
2013-07-01 09:40:00,73.0,63.4,29.96,North,360,5.0,7.0,72,0.00,,,0.00,494.0,WUHU216DAVISVP2,2013-07-01 14:40:00,
2013-07-01 09:45:00,73.5,64.1,29.96,NNW,346,5.0,7.0,72,0.00,,,0.00,504.0,WUHU216DAVISVP2,2013-07-01 14:45:00,
2013-07-01 09:50:00,73.9,63.5,29.96,NNE,29,5.0,7.0,70,0.00,,,0.00,497.0,WUHU216DAVISVP2,2013-07-01 14:50:00,
2013-07-01 09:55:00,74.2,64.8,29.96,NNW,342,5.0,7.0,72,0.00,,,0.00,526.0,WUHU216DAVISVP2,2013-07-01 14:55:00,
2013-07-01 10:00:00,74.5,64.7,29.96,North,351,5.0,6.0,71,0.00,,,0.00,390.0,WUHU216DAVISVP2,2013-07-01 15:00:00,
2013-07-01 10:05:00,74.6,64.2,30.10,North,360,2.0,3.0,70,0.00,,SCT100,0.00,327.00,VWS V14.01,2013-07-01 15:05:00,
2013-07-01 10:10:00,74.5,63.7,30.10,NNE,19,6.0,6.0,69,0.00,,SCT100,0.00,311.00,VWS V14.01,2013-07-01 15:10:00,
2013-07-01 10:15:00,74.3,63.3,29.96,NE,54,3.0,6.0,68,0.00,,,0.00,309.0,WUHU216DAVISVP2,2013-07-01 15:15:00,
2013-07-01 10:20:00,74.3,62.6,29.96,NE,51,2.0,6.0,67,0.00,,,0.00,341.0,WUHU216DAVISVP2,2013-07-01 15:20:00,
2013-07-01 10:25:00,74.8,63.3,29.96,NNE,29,2.0,5.0,67,0.00,,,0.00,408.0,WUHU216DAVISVP2,2013-07-01 15:25:00,
2013-07-01 10:30:00,75.2,63.3,29.96,NNE,29,5.0,5.0,66,0.00,,,0.00,367.0,WUHU216DAVISVP2,2013-07-01 15:30:00,
2013-07-01 10:35:00,75.3,62.7,29.96,NNE,29,2.0,5.0,65,0.00,,,0.00,392.0,WUHU216DAVISVP2,2013-07-01 15:35:00,
2013-07-01 10:40:00,75.3,63.4,29.96,NNW,340,1.0,5.0,66,0.00,,,0.00,425.0,WUHU216DAVISVP2,2013-07-01 15:40:00,
2013-07-01 10:45:00,75.4,63.5,29.96,NE,48,0.0,5.0,66,0.00,,,0.00,527.0,WUHU216DAVISVP2,2013-07-01 15:45:00,
2013-07-01 10:50:00,76.0,63.4,29.96,NE,47,0.0,3.0,65,0.00,,,0.00,835.0,WUHU216DAVISVP2,2013-07-01 15:50:00,
2013-07-01 10:55:00,77.0,65.6,30.09,SSW,206,1.0,1.0,68,0.00,,SCT100,0.00,814.00,VWS V14.01,2013-07-01 15:55:00,
2013-07-01 11:00:00,78.0,66.0,29.95,North,360,4.0,5.0,66,0.00,,,0.00,828.0,WUHU216DAVISVP2,2013-07-01 16:00:00,
2013-07-01 11:05:00,78.7,65.7,29.96,NNW,343,3.0,5.0,64,0.00,,,0.00,814.0,WUHU216DAVISVP2,2013-07-01 16:05:00,
2013-07-01 11:10:00,79.2,65.8,29.96,North,355,4.0,7.0,63,0.00,,,0.00,807.0,WUHU216DAVISVP2,2013-07-01 16:10:00,
2013-07-01 11:15:00,79.4,63.6,29.96,SE,138,3.0,7.0,58,0.00,,,0.00,803.0,WUHU216DAVISVP2,2013-07-01 16:15:00,
2013-07-01 11:20:00,79.5,65.3,29.96,NNE,20,3.0,7.0,62,0.00,,,0.00,800.0,WUHU216DAVISVP2,2013-07-01 16:20:00,
2013-07-01 11:25:00,79.6,64.5,30.09,NE,36,7.0,7.0,60,0.00,,SCT100,0.00,821.00,VWS V14.01,2013-07-01 16:25:00,
2013-07-01 11:30:00,79.7,64.1,29.96,NNE,19,6.0,9.0,59,0.00,,,0.00,819.0,WUHU216DAVISVP2,2013-07-01 16:30:00,
2013-07-01 11:35:00,79.8,63.7,29.96,NNW,346,1.0,9.0,58,0.00,,,0.00,816.0,WUHU216DAVISVP2,2013-07-01 16:35:00,
2013-07-01 11:40:00,80.3,65.9,29.96,North,355,5.0,8.0,61,0.00,,,0.00,833.0,WUHU216DAVISVP2,2013-07-01 16:40:00,
2013-07-01 11:45:00,80.5,64.9,30.09,NW,306,3.0,3.0,59,0.00,,SCT100,0.00,831.00,VWS V14.01,2013-07-01 16:45:00,
2013-07-01 11:50:00,80.8,66.3,29.96,North,355,6.0,8.0,61,0.00,,,0.00,844.0,WUHU216DAVISVP2,2013-07-01 16:50:00,
2013-07-01 11:55:00,81.2,66.5,30.09,NNW,346,8.0,8.0,61,0.00,,SCT100,0.00,861.00,VWS V14.01,2013-07-01 16:55:00,
2013-07-01 12:00:00,81.3,66.1,30.09,North,360,7.0,8.0,60,0.00,,SCT100,0.00,856.00,VWS V14.01,2013-07-01 17:00:00,
2013-07-01 12:05:00,81.4,63.7,29.96,North,355,7.0,10.0,55,0.00,,,0.00,865.0,WUHU216DAVISVP2,2013-07-01 17:05:00,
2013-07-01 12:10:00,81.2,63.2,29.96,NNW,329,9.0,11.0,54,0.00,,,0.00,870.0,WUHU216DAVISVP2,2013-07-01 17:10:00,
2013-07-01 12:15:00,81.3,62.7,29.95,NNW,344,7.0,11.0,53,0.00,,,0.00,872.0,WUHU216DAVISVP2,2013-07-01 17:15:00,
2013-07-01 12:20:00,81.5,64.5,29.95,North,351,6.0,11.0,56,0.00,,,0.00,874.0,WUHU216DAVISVP2,2013-07-01 17:20:00,
2013-07-01 12:25:00,81.6,64.6,29.96,ENE,65,7.0,11.0,56,0.00,,,0.00,847.0,WUHU216DAVISVP2,2013-07-01 17:25:00,
2013-07-01 12:30:00,81.4,62.1,29.95,North,351,6.0,11.0,52,0.00,,,0.00,858.0,WUHU216DAVISVP2,2013-07-01 17:30:00,
2013-07-01 12:35:00,81.5,61.1,29.96,North,360,8.0,13.0,50,0.00,,,0.00,905.0,WUHU216DAVISVP2,2013-07-01 17:35:00,
2013-07-01 12:40:00,81.5,65.3,30.08,NNW,346,4.0,5.0,58,0.00,,CLR,0.00,877.00,VWS V14.01,2013-07-01 17:40:00,
2013-07-01 12:45:00,81.8,62.6,29.95,North,355,6.0,11.0,52,0.00,,,0.00,953.0,WUHU216DAVISVP2,2013-07-01 17:45:00,
2013-07-01 12:50:00,81.9,62.6,30.08,NNE,19,4.0,4.0,52,0.00,,CLR,0.00,1002.00,VWS V14.01,2013-07-01 17:50:00,
2013-07-01 12:56:00,82.1,64.3,30.08,NNW,342,9.0,10.0,55,0.00,,CLR,0.00,983.00,VWS V14.01,2013-07-01 17:56:00,
2013-07-01 13:01:00,81.1,62.4,30.08,NNE,21,10.0,10.0,53,0.00,,SCT100,0.00,251.00,VWS V14.01,2013-07-01 18:01:00,
2013-07-01 13:06:00,80.0,61.9,30.08,NNE,12,4.0,4.0,54,0.00,,SCT100,0.00,323.00,VWS V14.01,2013-07-01 18:06:00,
2013-07-01 13:11:00,80.3,61.6,30.08,North,11,4.0,4.0,53,0.00,,SCT100,0.00,1004.00,VWS V14.01,2013-07-01 18:11:00,
2013-07-01 13:15:00,80.2,62.1,30.08,NNE,15,10.0,10.0,54,0.00,,SCT100,0.00,276.00,VWS V14.01,2013-07-01 18:15:00,
2013-07-01 13:20:00,79.2,62.3,29.95,NNE,16,8.0,13.0,56,0.00,,,0.00,359.0,WUHU216DAVISVP2,2013-07-01 18:20:00,
2013-07-01 13:25:00,79.2,62.2,30.08,NE,37,8.0,8.0,56,0.00,,SCT100,0.00,334.00,VWS V14.01,2013-07-01 18:25:00,
2013-07-01 13:30:00,79.2,60.6,30.08,NNE,29,10.0,10.0,53,0.00,,SCT100,0.00,448.00,VWS V14.01,2013-07-01 18:30:00,
2013-07-01 13:35:00,79.3,61.9,29.94,NE,42,4.0,11.0,55,0.00,,,0.00,392.0,WUHU216DAVISVP2,2013-07-01 18:35:00,
2013-07-01 13:40:00,79.7,62.3,29.94,NNE,14,2.0,9.0,55,0.00,,,0.00,977.0,WUHU216DAVISVP2,2013-07-01 18:40:00,
2013-07-01 13:45:00,80.5,61.8,29.95,NNE,22,13.0,13.0,53,0.00,,,0.00,889.0,WUHU216DAVISVP2,2013-07-01 18:45:00,
2013-07-01 13:50:00,81.1,64.6,29.94,NNE,14,9.0,13.0,57,0.00,,,0.00,1044.0,WUHU216DAVISVP2,2013-07-01 18:50:00,
2013-07-01 13:55:00,82.1,64.0,29.94,North,5,12.0,16.0,54,0.00,,,0.00,1007.0,WUHU216DAVISVP2,2013-07-01 18:55:00,
2013-07-01 14:00:00,82.0,60.5,29.94,ENE,60,7.0,16.0,48,0.00,,,0.00,981.0,WUHU216DAVISVP2,2013-07-01 19:00:00,
2013-07-01 14:05:00,82.1,59.9,29.94,North,360,9.0,12.0,47,0.00,,,0.00,965.0,WUHU216DAVISVP2,2013-07-01 19:05:00,
2013-07-01 14:10:00,82.1,62.3,29.94,NNE,13,9.0,12.0,51,0.00,,,0.00,969.0,WUHU216DAVISVP2,2013-07-01 19:10:00,
2013-07-01 14:15:00,82.3,63.1,29.94,North,360,9.0,11.0,52,0.00,,,0.00,926.0,WUHU216DAVISVP2,2013-07-01 19:15:00,
2013-07-01 14:20:00,82.3,63.5,30.07,NNE,22,14.0,14.0,53,0.00,,BKN095,0.00,932.00,VWS V14.01,2013-07-01 19:20:00,
2013-07-01 14:25:00,82.0,61.1,29.94,NNE,24,5.0,18.0,49,0.00,,,0.00,914.0,WUHU216DAVISVP2,2013-07-01 19:25:00,
2013-07-01 14:30:00,82.1,61.6,29.93,NNE,15,7.0,14.0,50,0.00,,,0.00,909.0,WUHU216DAVISVP2,2013-07-01 19:30:00,
2013-07-01 14:35:00,82.4,61.3,30.07,NNE,24,6.0,6.0,49,0.00,,BKN095,0.00,918.00,VWS V14.01,2013-07-01 19:35:00,
2013-07-01 14:40:00,82.6,63.2,30.07,NNE,28,8.0,8.0,52,0.00,,BKN095,0.00,923.00,VWS V14.01,2013-07-01 19:40:00,
2013-07-01 14:45:00,82.9,60.6,30.07,NE,35,10.0,10.0,47,0.00,,BKN095,0.00,967.00,VWS V14.01,2013-07-01 19:45:00,
2013-07-01 14:50:00,82.7,58.6,29.93,NE,48,2.0,10.0,44,0.00,,,0.00,396.0,WUHU216DAVISVP2,2013-07-01 19:50:00,
2013-07-01 14:55:00,82.3,64.2,29.93,NNE,22,7.0,11.0,54,0.00,,,0.00,942.0,WUHU216DAVISVP2,2013-07-01 19:55:00,
2013-07-01 15:00:00,82.0,61.5,29.93,NNE,19,10.0,14.0,50,0.00,,,0.00,872.0,WUHU216DAVISVP2,2013-07-01 20:00:00,
2013-07-01 15:05:00,81.5,60.6,29.93,NNE,14,6.0,14.0,49,0.00,,,0.00,874.0,WUHU216DAVISVP2,2013-07-01 20:05:00,
2013-07-01 15:10:00,82.1,61.6,29.93,NNE,30,10.0,10.0,50,0.00,,,0.00,858.0,WUHU216DAVISVP2,2013-07-01 20:10:00,
2013-07-01 15:15:00,82.0,59.2,29.93,NNE,33,9.0,13.0,46,0.00,,,0.00,821.0,WUHU216DAVISVP2,2013-07-01 20:15:00,
2013-07-01 15:20:00,82.0,59.9,29.92,NNE,30,11.0,13.0,47,0.00,,,0.00,840.0,WUHU216DAVISVP2,2013-07-01 20:20:00,
2013-07-01 15:25:00,82.2,60.0,30.07,North,5,13.0,13.0,47,0.00,,BKN110,0.00,844.00,VWS V14.01,2013-07-01 20:25:00,
2013-07-01 15:30:00,82.3,61.2,29.93,NNE,28,7.0,12.0,49,0.00,,,0.00,875.0,WUHU216DAVISVP2,2013-07-01 20:30:00,
2013-07-01 15:35:00,82.4,59.5,29.93,NNE,20,8.0,14.0,46,0.00,,,0.00,872.0,WUHU216DAVISVP2,2013-07-01 20:35:00,
2013-07-01 15:40:00,82.7,59.2,29.92,NNE,14,7.0,14.0,45,0.00,,,0.00,552.0,WUHU216DAVISVP2,2013-07-01 20:40:00,
2013-07-01 15:45:00,82.6,61.0,29.93,NE,51,1.0,12.0,48,0.00,,,0.00,353.0,WUHU216DAVISVP2,2013-07-01 20:45:00,
2013-07-01 15:50:00,82.0,58.6,29.93,NE,55,2.0,9.0,45,0.00,,,0.00,341.0,WUHU216DAVISVP2,2013-07-01 20:50:00,
2013-07-01 15:55:00,81.6,61.3,29.93,NE,54,1.0,7.0,50,0.00,,,0.00,336.0,WUHU216DAVISVP2,2013-07-01 20:55:00,
2013-07-01 16:00:00,81.1,61.3,30.07,North,350,4.0,4.0,51,0.00,,BKN110,0.00,320.00,VWS V14.01,2013-07-01 21:00:00,
2013-07-01 16:05:00,80.7,59.2,29.93,NE,51,0.0,10.0,48,0.00,,,0.00,297.0,WUHU216DAVISVP2,2013-07-01 21:05:00,
2013-07-01 16:10:00,80.9,61.1,30.07,NNE,30,2.0,3.0,51,0.00,,FEW065,0.00,796.00,VWS V14.01,2013-07-01 21:10:00,
2013-07-01 16:15:00,81.3,59.8,29.93,NE,40,2.0,9.0,48,0.00,,,0.00,272.0,WUHU216DAVISVP2,2013-07-01 21:15:00,
2013-07-01 16:20:00,81.1,59.6,29.93,NNE,30,4.0,9.0,48,0.00,,,0.00,758.0,WUHU216DAVISVP2,2013-07-01 21:20:00,
2013-07-01 16:25:00,81.3,60.9,30.07,NNE,22,6.0,6.0,50,0.00,,FEW065,0.00,258.00,VWS V14.01,2013-07-01 21:25:00,
2013-07-01 16:30:00,81.2,59.7,29.93,NNE,26,5.0,9.0,48,0.00,,,0.00,707.0,WUHU216DAVISVP2,2013-07-01 21:30:00,
2013-07-01 16:35:00,81.4,59.9,29.93,NNE,29,7.0,13.0,48,0.00,,,0.00,656.0,WUHU216DAVISVP2,2013-07-01 21:35:00,
2013-07-01 16:40:00,81.4,59.3,29.93,North,11,2.0,13.0,47,0.00,,,0.00,615.0,WUHU216DAVISVP2,2013-07-01 21:40:00,
2013-07-01 16:45:00,81.5,59.4,29.92,ENE,76,1.0,9.0,47,0.00,,,0.00,550.0,WUHU216DAVISVP2,2013-07-01 21:45:00,
2013-07-01 16:50:00,81.5,61.2,29.92,NNE,18,8.0,10.0,50,0.00,,,0.00,533.0,WUHU216DAVISVP2,2013-07-01 21:50:00,
2013-07-01 16:55:00,81.2,62.6,29.92,NNE,28,10.0,11.0,53,0.00,,,0.00,533.0,WUHU216DAVISVP2,2013-07-01 21:55:00,
2013-07-01 17:00:00,80.9,60.6,29.93,ENE,75,6.0,18.0,50,0.00,,,0.00,568.0,WUHU216DAVISVP2,2013-07-01 22:00:00,
2013-07-01 17:05:00,80.9,59.5,29.93,NE,49,5.0,18.0,48,0.00,,,0.00,534.0,WUHU216DAVISVP2,2013-07-01 22:05:00,
2013-07-01 17:10:00,80.9,59.5,29.92,NE,56,1.0,10.0,48,0.00,,,0.00,504.0,WUHU216DAVISVP2,2013-07-01 22:10:00,
2013-07-01 17:15:00,81.0,60.6,30.06,East,92,2.0,2.0,50,0.00,,BKN070,0.00,554.00,VWS V14.01,2013-07-01 22:15:00,
2013-07-01 17:20:00,81.3,63.8,29.92,NNE,22,6.0,8.0,55,0.00,,,0.00,561.0,WUHU216DAVISVP2,2013-07-01 22:20:00,
2013-07-01 17:25:00,81.4,62.2,29.92,ENE,73,4.0,8.0,52,0.00,,,0.00,554.0,WUHU216DAVISVP2,2013-07-01 22:25:00,
2013-07-01 17:30:00,81.4,61.7,29.92,North,11,3.0,8.0,51,0.00,,,0.00,563.0,WUHU216DAVISVP2,2013-07-01 22:30:00,
2013-07-01 17:35:00,81.4,60.5,29.93,NE,46,5.0,11.0,49,0.00,,,0.00,548.0,WUHU216DAVISVP2,2013-07-01 22:35:00,
2013-07-01 17:40:00,81.1,60.8,29.93,East,80,1.0,11.0,50,0.00,,,0.00,503.0,WUHU216DAVISVP2,2013-07-01 22:40:00,
2013-07-01 17:45:00,80.9,61.2,29.92,NNE,30,6.0,7.0,51,0.00,,,0.00,494.0,WUHU216DAVISVP2,2013-07-01 22:45:00,
2013-07-01 17:50:00,80.7,60.5,29.92,East,98,1.0,7.0,50,0.00,,,0.00,469.0,WUHU216DAVISVP2,2013-07-01 22:50:00,
2013-07-01 17:55:00,80.8,62.1,30.06,NE,52,3.0,3.0,53,0.00,,BKN070,0.00,448.00,VWS V14.01,2013-07-01 22:55:00,
2013-07-01 18:00:00,81.1,60.7,30.06,ENE,74,5.0,5.0,50,0.00,,BKN070,0.00,429.00,VWS V14.01,2013-07-01 23:00:00,
2013-07-01 18:05:00,80.9,60.5,29.92,ENE,59,6.0,9.0,50,0.00,,,0.00,415.0,WUHU216DAVISVP2,2013-07-01 23:05:00,
2013-07-01 18:10:00,80.4,60.1,29.92,NE,40,4.0,9.0,50,0.00,,,0.00,399.0,WUHU216DAVISVP2,2013-07-01 23:10:00,
2013-07-01 18:15:00,80.0,59.7,29.92,NE,34,1.0,9.0,50,0.00,,,0.00,378.0,WUHU216DAVISVP2,2013-07-01 23:15:00,
2013-07-01 18:20:00,79.8,60.6,30.06,NE,54,1.0,1.0,52,0.00,,CLR,0.00,369.00,VWS V14.01,2013-07-01 23:20:00,
2013-07-01 18:25:00,79.9,60.8,29.92,South,174,0.0,7.0,52,0.00,,,0.00,355.0,WUHU216DAVISVP2,2013-07-01 23:25:00,
2013-07-01 18:30:00,79.9,60.3,29.92,East,96,2.0,7.0,51,0.00,,,0.00,339.0,WUHU216DAVISVP2,2013-07-01 23:30:00,
2013-07-01 18:35:00,79.6,58.3,29.92,ESE,122,5.0,7.0,48,0.00,,,0.00,323.0,WUHU216DAVISVP2,2013-07-01 23:35:00,
2013-07-01 18:40:00,79.3,59.7,29.92,South,172,3.0,8.0,51,0.00,,,0.00,309.0,WUHU216DAVISVP2,2013-07-01 23:40:00,
2013-07-01 18:45:00,79.4,58.7,29.92,ENE,61,1.0,8.0,49,0.00,,,0.00,299.0,WUHU216DAVISVP2,2013-07-01 23:45:00,
2013-07-01 18:50:00,79.5,59.9,29.92,ENE,65,0.0,7.0,51,0.00,,,0.00,279.0,WUHU216DAVISVP2,2013-07-01 23:50:00,
2013-07-01 18:55:00,79.5,60.5,29.92,NNE,30,4.0,6.0,52,0.00,,,0.00,265.0,WUHU216DAVISVP2,2013-07-01 23:55:00,
2013-07-01 19:00:00,79.2,58.5,29.92,ENE,69,0.0,6.0,49,0.00,,,0.00,251.0,WUHU216DAVISVP2,2013-07-02 00:00:00,
2013-07-01 19:05:00,79.2,59.6,29.92,East,94,0.0,6.0,51,0.00,,,0.00,237.0,WUHU216DAVISVP2,2013-07-02 00:05:00,
2013-07-01 19:10:00,79.2,59.1,29.92,ENE,67,2.0,5.0,50,0.00,,,0.00,220.0,WUHU216DAVISVP2,2013-07-02 00:10:00,
2013-07-01 19:15:00,78.9,59.4,29.92,ENE,78,0.0,4.0,51,0.00,,,0.00,207.0,WUHU216DAVISVP2,2013-07-02 00:15:00,
2013-07-01 19:20:00,78.8,59.7,30.05,East,84,1.0,1.0,52,0.00,,CLR,0.00,202.00,VWS V14.01,2013-07-02 00:20:00,
2013-07-01 19:25:00,78.8,58.7,29.92,East,84,1.0,4.0,50,0.00,,,0.00,195.0,WUHU216DAVISVP2,2013-07-02 00:25:00,
2013-07-01 19:30:00,78.7,59.6,30.06,ENE,72,1.0,0.0,52,0.00,,CLR,0.00,179.00,VWS V14.01,2013-07-02 00:30:00,
2013-07-01 19:35:00,78.7,60.2,30.05,ENE,72,1.0,0.0,53,0.00,,CLR,0.00,158.00,VWS V14.01,2013-07-02 00:35:00,
2013-07-01 19:40:00,78.5,59.0,29.93,East,79,1.0,6.0,51,0.00,,,0.00,144.0,WUHU216DAVISVP2,2013-07-02 00:40:00,
2013-07-01 19:45:00,78.0,58.5,29.92,ESE,120,1.0,6.0,51,0.00,,,0.00,139.0,WUHU216DAVISVP2,2013-07-02 00:45:00,
2013-07-01 19:50:00,77.7,58.8,29.92,ENE,64,0.0,5.0,52,0.00,,,0.00,121.0,WUHU216DAVISVP2,2013-07-02 00:50:00,
2013-07-01 19:55:00,77.3,58.4,29.92,NE,53,4.0,7.0,52,0.00,,,0.00,62.0,WUHU216DAVISVP2,2013-07-02 00:55:00,
2013-07-01 20:00:00,76.9,57.9,29.92,ESE,109,0.0,7.0,52,0.00,,,0.00,102.0,WUHU216DAVISVP2,2013-07-02 01:00:00,
2013-07-01 20:05:00,76.5,58.2,29.92,ENE,74,0.0,4.0,53,0.00,,,0.00,54.0,WUHU216DAVISVP2,2013-07-02 01:05:00,
2013-07-01 20:10:00,76.1,57.8,30.06,ENE,74,1.0,1.0,53,0.00,,CLR,0.00,54.00,VWS V14.01,2013-07-02 01:10:00,
2013-07-01 20:15:00,75.7,57.5,29.92,NW,326,0.0,4.0,53,0.00,,,0.00,46.0,WUHU216DAVISVP2,2013-07-02 01:15:00,
2013-07-01 20:20:00,75.2,57.6,29.92,East,82,0.0,2.0,54,0.00,,,0.00,40.0,WUHU216DAVISVP2,2013-07-02 01:20:00,
2013-07-01 20:25:00,74.7,57.6,29.92,East,82,0.0,2.0,55,0.00,,,0.00,37.0,WUHU216DAVISVP2,2013-07-02 01:25:00,
2013-07-01 20:30:00,74.1,57.1,29.92,East,91,1.0,2.0,55,0.00,,,0.00,32.0,WUHU216DAVISVP2,2013-07-02 01:30:00,
2013-07-01 20:35:00,73.7,56.5,29.92,SE,133,0.0,2.0,55,0.00,,,0.00,28.0,WUHU216DAVISVP2,2013-07-02 01:35:00,
2013-07-01 20:40:00,73.3,57.3,29.92,ESE,109,0.0,2.0,57,0.00,,,0.00,25.0,WUHU216DAVISVP2,2013-07-02 01:40:00,
2013-07-01 20:45:00,72.8,56.7,29.92,ENE,78,0.0,3.0,57,0.00,,,0.00,19.0,WUHU216DAVISVP2,2013-07-02 01:45:00,
2013-07-01 20:50:00,72.4,56.8,30.06,West,281,1.0,0.0,58,0.00,,CLR,0.00,14.00,VWS V14.01,2013-07-02 01:50:00,
2013-07-01 20:55:00,72.0,56.1,29.92,West,281,0.0,0.0,57,0.00,,,0.00,12.0,WUHU216DAVISVP2,2013-07-02 01:55:00,
2013-07-01 21:00:00,71.6,56.2,29.92,West,281,0.0,0.0,58,0.00,,,0.00,9.0,WUHU216DAVISVP2,2013-07-02 02:00:00,
2013-07-01 21:05:00,71.2,56.8,29.92,SE,127,0.0,2.0,60,0.00,,,0.00,5.0,WUHU216DAVISVP2,2013-07-02 02:05:00,
2013-07-01 21:10:00,70.8,57.3,29.92,SE,126,0.0,2.0,62,0.00,,,0.00,0.0,WUHU216DAVISVP2,2013-07-02 02:10:00,
2013-07-01 21:15:00,70.4,57.4,29.92,SE,126,0.0,2.0,63,0.00,,,0.00,0.0,WUHU216DAVISVP2,2013-07-02 02:15:00,
2013-07-01 21:20:00,69.8,56.4,29.92,SE,127,0.0,1.0,62,0.00,,,0.00,0.0,WUHU216DAVISVP2,2013-07-02 02:20:00,
2013-07-01 21:25:00,69.3,57.5,30.06,SE,127,1.0,0.0,66,0.00,,CLR,0.00,0.00,VWS V14.01,2013-07-02 02:25:00,
2013-07-01 21:30:00,68.7,57.1,29.92,SE,126,0.0,0.0,66,0.00,,,0.00,0.0,WUHU216DAVISVP2,2013-07-02 02:30:00,
2013-07-01 21:35:00,68.1,57.3,29.92,SE,126,0.0,1.0,68,0.00,,,0.00,0.0,WUHU216DAVISVP2,2013-07-02 02:35:00,
2013-07-01 21:40:00,67.7,56.9,29.92,SE,127,0.0,1.0,68,0.00,,,0.00,0.0,WUHU216DAVISVP2,2013-07-02 02:40:00,
2013-07-01 21:45:00,67.2,57.1,30.06,SE,127,1.0,0.0,70,0.00,,CLR,0.00,0.00,VWS V14.01,2013-07-02 02:45:00,
2013-07-01 21:50:00,66.8,56.1,29.92,SE,127,0.0,0.0,68,0.00,,,0.00,0.0,WUHU216DAVISVP2,2013-07-02 02:50:00,
2013-07-01 21:55:00,66.3,55.4,29.92,SE,127,0.0,1.0,68,0.00,,,0.00,0.0,WUHU216DAVISVP2,2013-07-02 02:55:00,
2013-07-01 22:00:00,66.1,57.7,29.93,SE,127,0.0,1.0,74,0.00,,,0.00,0.0,WUHU216DAVISVP2,2013-07-02 03:00:00,
2013-07-01 22:05:00,65.9,57.5,29.92,SE,127,0.0,0.0,74,0.00,,,0.00,0.0,WUHU216DAVISVP2,2013-07-02 03:05:00,
2013-07-01 22:10:00,65.7,58.4,29.93,SE,126,0.0,0.0,77,0.00,,,0.00,0.0,WUHU216DAVISVP2,2013-07-02 03:10:00,
2013-07-01 22:15:00,65.3,58.0,29.93,SE,126,0.0,0.0,77,0.00,,,0.00,0.0,WUHU216DAVISVP2,2013-07-02 03:15:00,
2013-07-01 22:20:00,64.9,57.2,30.07,SE,127,1.0,0.0,76,0.00,,CLR,0.00,0.00,VWS V14.01,2013-07-02 03:20:00,
2013-07-01 22:25:00,64.6,56.5,30.07,SE,127,1.0,0.0,75,0.00,,CLR,0.00,0.00,VWS V14.01,2013-07-02 03:25:00,
2013-07-01 22:30:00,64.3,56.2,30.07,SE,127,1.0,0.0,75,0.00,,CLR,0.00,0.00,VWS V14.01,2013-07-02 03:30:00,
2013-07-01 22:35:00,64.0,56.7,29.93,SE,127,0.0,0.0,77,0.00,,,0.00,0.0,WUHU216DAVISVP2,2013-07-02 03:35:00,
2013-07-01 22:40:00,63.7,57.1,29.93,SE,126,0.0,1.0,79,0.00,,,0.00,0.0,WUHU216DAVISVP2,2013-07-02 03:40:00,
2013-07-01 22:45:00,63.5,57.2,30.07,SE,127,1.0,0.0,80,0.00,,CLR,0.00,0.00,VWS V14.01,2013-07-02 03:45:00,
2013-07-01 22:50:00,63.2,55.1,29.93,SE,126,0.0,2.0,75,0.00,,,0.00,0.0,WUHU216DAVISVP2,2013-07-02 03:50:00,
2013-07-01 22:55:00,63.2,54.8,30.07,SE,126,1.0,0.0,74,0.00,,CLR,0.00,0.00,VWS V14.01,2013-07-02 03:55:00,
2013-07-01 23:00:00,63.5,54.7,30.07,SE,126,1.0,0.0,73,0.00,,CLR,0.00,0.00,VWS V14.01,2013-07-02 04:00:00,
2013-07-01 23:01:00,63.5,55.1,30.07,SE,126,1.0,0.0,74,0.00,,CLR,0.00,0.00,VWS V14.01,2013-07-02 04:01:00,
2013-07-01 23:06:00,63.7,55.0,29.93,SE,126,0.0,1.0,73,0.00,,,0.00,0.0,WUHU216DAVISVP2,2013-07-02 04:06:00,
2013-07-01 23:11:00,63.8,54.7,29.93,SE,126,0.0,1.0,72,0.00,,,0.00,0.0,WUHU216DAVISVP2,2013-07-02 04:11:00,
2013-07-01 23:16:00,63.8,55.4,30.06,SE,126,1.0,0.0,74,0.00,,CLR,0.00,0.00,VWS V14.01,2013-07-02 04:16:00,
2013-07-01 23:21:00,63.6,54.4,29.92,SE,126,0.0,1.0,72,0.00,,,0.00,0.0,WUHU216DAVISVP2,2013-07-02 04:21:00,
2013-07-01 23:26:00,63.5,55.4,30.06,SE,126,1.0,0.0,75,0.00,,CLR,0.00,0.00,VWS V14.01,2013-07-02 04:26:00,
2013-07-01 23:31:00,63.5,54.7,29.92,SE,126,0.0,2.0,73,0.00,,,0.00,0.0,WUHU216DAVISVP2,2013-07-02 04:31:00,
2013-07-01 23:36:00,63.5,54.8,29.92,SE,126,0.0,2.0,73,0.00,,,0.00,0.0,WUHU216DAVISVP2,2013-07-02 04:36:00,
2013-07-01 23:41:00,63.4,54.4,29.93,SE,126,0.0,2.0,72,0.00,,,0.00,0.0,WUHU216DAVISVP2,2013-07-02 04:41:00,
2013-07-01 23:46:00,63.5,54.4,29.92,SE,126,0.0,1.0,72,0.00,,,0.00,0.0,WUHU216DAVISVP2,2013-07-02 04:46:00,
2013-07-01 23:51:00,63.5,54.1,29.92,SE,126,0.0,2.0,71,0.00,,,0.00,0.0,WUHU216DAVISVP2,2013-07-02 04:51:00,
2013-07-01 23:56:00,63.6,54.2,29.93,SE,126,0.0,2.0,71,0.00,,,0.00,0.0,WUHU216DAVISVP2,2013-07-02 04:56:00,